Alstead Center, New Hampshire
Current Conditions -  °F | °C
As of 2:35 PM on Tuesday 21 Oct 2014 (Local Time) from KEEN Reporting Station
Broken Clouds Broken Clouds  
Wind Chill: 13°   Ceiling: 9000
Heat Index: 13°   Visibility: 10mi
Dew Point:   Wind: 7mph
Humidity: 67%   Direction: 10°N
Pressure: 29.93"   Gusts: NA
Location:  43.1141°N, 72.3097°W
Report Text: KEEN 211835Z AUTO 01006KT 10SM SCT018 BKN090 13/07 A2993 RMK AO1
Loading
Personal Weather Stations






























Interactive Weather Map
Tropical Storm Tracking
New forecast layout! Learn more

10-Day Weather Forecast

Advertisements
Track Severe Weather on mobile